createdAt,value
2022-11-02T00:00:25.165Z,2.10
2022-11-02T00:02:52.335Z,2.75
2022-11-02T00:05:24.662Z,2.08
2022-11-02T00:07:52.901Z,2.50
2022-11-02T00:10:20.532Z,2.80
2022-11-02T00:12:47.720Z,2.60
2022-11-02T00:15:14.989Z,1.80
2022-11-02T00:17:43.394Z,1.90
2022-11-02T00:20:11.462Z,2.47
2022-11-02T00:22:39.575Z,2.33
2022-11-02T00:25:07.686Z,2.22
2022-11-02T00:27:35.613Z,2.17
2022-11-02T00:30:02.745Z,2.13
2022-11-02T00:32:31.838Z,2.65
2022-11-02T00:34:58.977Z,2.60
2022-11-02T00:37:26.220Z,2.20
2022-11-02T00:39:53.508Z,2.13
2022-11-02T00:42:20.715Z,2.10
2022-11-02T00:44:47.916Z,1.60
2022-11-02T00:47:15.085Z,2.63
2022-11-02T00:49:42.223Z,2.00
2022-11-02T00:52:09.708Z,2.47
2022-11-02T00:54:36.842Z,2.03
2022-11-02T00:57:04.176Z,1.85
2022-11-02T00:59:31.316Z,2.28
2022-11-02T01:01:58.603Z,2.03
2022-11-02T01:04:28.075Z,2.25
2022-11-02T01:06:57.550Z,1.92
2022-11-02T01:09:27.085Z,1.90
2022-11-02T01:11:54.699Z,2.53
2022-11-02T01:14:37.805Z,2.78
2022-11-02T01:17:05.008Z,2.50
2022-11-02T01:19:32.212Z,2.45
2022-11-02T01:21:59.440Z,3.03
2022-11-02T01:24:26.595Z,2.45
2022-11-02T01:26:53.828Z,2.63
2022-11-02T01:29:21.063Z,2.70
2022-11-02T01:31:48.757Z,2.13
2022-11-02T01:34:16.261Z,2.58
2022-11-02T01:36:45.461Z,2.40
2022-11-02T01:39:12.664Z,2.90
2022-11-02T01:41:39.810Z,2.67
2022-11-02T01:44:23.658Z,2.20
2022-11-02T01:46:50.818Z,2.53
2022-11-02T01:49:20.443Z,1.80
2022-11-02T01:51:50.512Z,3.28
2022-11-02T01:54:21.739Z,2.58
2022-11-02T01:56:51.403Z,3.08
2022-11-02T01:59:21.947Z,2.72
2022-11-02T02:01:49.675Z,2.30
2022-11-02T02:04:17.624Z,2.03
2022-11-02T02:06:44.872Z,2.55
2022-11-02T02:09:12.473Z,2.30
2022-11-02T02:11:40.350Z,2.03
2022-11-02T02:14:11.965Z,3.53
2022-11-02T02:16:57.942Z,2.55
2022-11-02T02:19:37.296Z,1.92
2022-11-02T02:22:10.374Z,2.70
2022-11-02T02:24:37.502Z,2.97
2022-11-02T02:27:07.854Z,2.90
2022-11-02T02:29:34.990Z,2.50
2022-11-02T02:32:02.112Z,2.83
2022-11-02T02:34:38.195Z,2.25
2022-11-02T02:37:10.674Z,2.58
2022-11-02T02:39:47.748Z,2.38
2022-11-02T02:42:19.884Z,1.92
2022-11-02T02:44:55.392Z,2.40
2022-11-02T02:47:24.414Z,2.45
2022-11-02T02:49:53.353Z,2.25
2022-11-02T02:52:21.421Z,3.55
2022-11-02T02:54:50.090Z,1.92
2022-11-02T02:57:22.051Z,2.70
2022-11-02T02:59:49.963Z,2.70
2022-11-02T03:02:22.030Z,2.72
2022-11-02T03:04:49.301Z,1.83
2022-11-02T03:07:19.687Z,3.05
2022-11-02T03:09:58.951Z,2.22
2022-11-02T03:12:28.946Z,2.58
2022-11-02T03:15:14.598Z,2.67
2022-11-02T03:17:41.737Z,2.30
2022-11-02T03:20:14.699Z,2.10
2022-11-02T03:22:41.848Z,3.20
2022-11-02T03:25:15.122Z,2.40
2022-11-02T03:27:49.738Z,1.80
2022-11-02T03:30:20.359Z,2.00
2022-11-02T03:32:56.491Z,1.77
2022-11-02T03:35:29.721Z,1.70
2022-11-02T03:37:59.528Z,1.60
2022-11-02T03:40:31.841Z,1.60
2022-11-02T03:43:00.488Z,1.67
2022-11-02T03:45:31.343Z,1.75
2022-11-02T03:48:00.912Z,1.60
2022-11-02T03:50:28.262Z,1.88
2022-11-02T03:52:58.480Z,2.08
2022-11-02T03:55:35.293Z,2.33
2022-11-02T03:58:02.687Z,2.60
2022-11-02T04:00:32.418Z,3.22
2022-11-02T04:03:01.150Z,1.95
2022-11-02T04:05:32.634Z,1.90
2022-11-02T04:08:18.713Z,2.05
2022-11-02T04:11:04.664Z,1.70
2022-11-02T04:13:50.723Z,1.63
2022-11-02T04:16:17.916Z,1.40
2022-11-02T04:19:04.529Z,1.50
2022-11-02T04:21:31.903Z,1.38
2022-11-02T04:24:18.890Z,1.67
2022-11-02T04:26:46.185Z,1.85
2022-11-02T04:29:13.423Z,1.73
2022-11-02T04:31:40.600Z,2.08
2022-11-02T04:34:07.748Z,1.25
2022-11-02T04:36:34.887Z,1.40
2022-11-02T04:39:02.048Z,1.58
2022-11-02T04:41:44.642Z,1.75
2022-11-02T04:44:14.269Z,1.13
2022-11-02T04:46:41.982Z,1.85
2022-11-02T04:49:09.733Z,1.45
2022-11-02T04:51:37.342Z,1.70
2022-11-02T04:54:04.817Z,1.42
2022-11-02T04:56:31.991Z,1.38
2022-11-02T04:58:59.991Z,1.38
2022-11-02T05:01:29.417Z,1.35
2022-11-02T05:03:57.086Z,1.45
2022-11-02T05:06:24.881Z,1.02
2022-11-02T05:08:52.224Z,1.80
2022-11-02T05:11:19.706Z,1.80
2022-11-02T05:13:47.174Z,1.45
2022-11-02T05:16:15.817Z,1.48
2022-11-02T05:18:43.302Z,1.70
2022-11-02T05:21:11.236Z,1.85
2022-11-02T05:23:38.817Z,1.75
2022-11-02T05:26:07.718Z,1.48
2022-11-02T05:28:35.236Z,1.60
2022-11-02T05:31:02.699Z,1.67
2022-11-02T05:33:31.144Z,1.38
2022-11-02T05:35:59.130Z,1.70
2022-11-02T05:38:26.774Z,1.95
2022-11-02T05:40:54.913Z,1.95
2022-11-02T05:43:22.128Z,1.55
2022-11-02T05:46:07.445Z,1.95
2022-11-02T05:48:34.687Z,2.15
2022-11-02T05:51:05.246Z,1.83
2022-11-02T05:53:34.000Z,1.83
2022-11-02T05:56:01.982Z,1.63
2022-11-02T05:58:29.417Z,1.60
2022-11-02T06:00:59.606Z,2.28
2022-11-02T06:03:26.772Z,1.38
2022-11-02T06:06:00.797Z,1.83
2022-11-02T06:08:28.435Z,2.03
2022-11-02T06:10:55.683Z,1.77
2022-11-02T06:13:22.901Z,1.52
2022-11-02T06:15:50.129Z,1.85
2022-11-02T06:18:17.268Z,2.20
2022-11-02T06:20:44.420Z,2.22
2022-11-02T06:23:14.416Z,1.95
2022-11-02T06:25:41.692Z,2.22
2022-11-02T06:28:08.830Z,1.98
2022-11-02T06:30:36.041Z,1.88
2022-11-02T06:33:07.034Z,1.88
2022-11-02T06:35:34.579Z,2.05
2022-11-02T06:38:01.786Z,2.22
2022-11-02T06:40:29.282Z,1.98
2022-11-02T06:43:15.362Z,2.00
2022-11-02T06:45:43.473Z,2.13
2022-11-02T06:48:10.658Z,2.60
2022-11-02T06:50:37.918Z,2.60
2022-11-02T06:53:05.218Z,2.78
2022-11-02T06:55:32.603Z,2.28
2022-11-02T06:57:59.752Z,2.42
2022-11-02T07:00:26.943Z,2.13
2022-11-02T07:03:07.721Z,3.25
2022-11-02T07:05:35.591Z,2.35
2022-11-02T07:08:02.762Z,2.30
2022-11-02T07:10:30.264Z,2.45
2022-11-02T07:12:58.134Z,2.22
2022-11-02T07:15:29.468Z,2.33
2022-11-02T07:17:56.722Z,2.35
2022-11-02T07:20:24.273Z,2.65
2022-11-02T07:22:54.544Z,2.30
2022-11-02T07:25:31.020Z,2.75
2022-11-02T07:28:01.512Z,2.70
2022-11-02T07:30:37.528Z,2.45
2022-11-02T07:33:05.439Z,2.60
2022-11-02T07:35:34.304Z,2.83
2022-11-02T07:38:02.575Z,2.83
2022-11-02T07:40:30.679Z,2.42
2022-11-02T07:42:58.355Z,2.35
2022-11-02T07:45:26.076Z,2.50
2022-11-02T07:47:53.267Z,2.67
2022-11-02T07:50:21.482Z,3.28
2022-11-02T07:52:50.025Z,2.50
2022-11-02T07:55:18.201Z,2.88
2022-11-02T07:57:53.516Z,2.50
2022-11-02T08:00:20.730Z,2.15
2022-11-02T08:02:47.986Z,2.53
2022-11-02T08:05:15.306Z,2.20
2022-11-02T08:07:42.470Z,2.25
2022-11-02T08:10:09.710Z,3.17
2022-11-02T08:12:36.853Z,3.40
2022-11-02T08:15:07.559Z,2.72
2022-11-02T08:17:35.071Z,2.30
2022-11-02T08:20:02.200Z,2.58
2022-11-02T08:22:29.393Z,2.40
2022-11-02T08:24:56.531Z,2.33
2022-11-02T08:27:23.726Z,2.08
2022-11-02T08:29:50.857Z,1.80
2022-11-02T08:32:17.982Z,2.13
2022-11-02T08:34:45.181Z,2.28
2022-11-02T08:37:12.305Z,2.20
2022-11-02T08:39:39.516Z,2.05
2022-11-02T08:42:06.713Z,1.88
2022-11-02T08:44:36.599Z,2.70
2022-11-02T08:47:09.279Z,2.58
2022-11-02T08:49:36.849Z,1.92
2022-11-02T08:52:04.045Z,1.65
2022-11-02T08:54:31.242Z,2.10
2022-11-02T08:56:58.463Z,1.75
2022-11-02T08:59:26.140Z,1.77
2022-11-02T09:01:53.487Z,2.22
2022-11-02T09:04:21.096Z,1.88
2022-11-02T09:06:48.240Z,2.25
2022-11-02T09:09:15.448Z,2.40
2022-11-02T09:11:42.642Z,1.42
2022-11-02T09:14:09.830Z,1.40
2022-11-02T09:16:41.219Z,2.00
2022-11-02T09:19:09.021Z,1.52
2022-11-02T09:21:36.188Z,2.17
2022-11-02T09:24:03.402Z,2.30
2022-11-02T09:26:30.531Z,2.20
2022-11-02T09:28:57.671Z,2.28
2022-11-02T09:31:24.991Z,2.17
2022-11-02T09:33:52.420Z,1.92
2022-11-02T09:36:19.716Z,1.80
2022-11-02T09:38:47.198Z,2.28
2022-11-02T09:41:23.504Z,2.30
2022-11-02T09:44:09.408Z,2.63
2022-11-02T09:49:11.244Z,1.98
2022-11-02T09:51:40.861Z,1.48
2022-11-02T09:54:17.129Z,2.15
2022-11-02T09:56:45.402Z,1.80
2022-11-02T09:59:15.487Z,2.28
2022-11-02T10:01:42.715Z,1.85
2022-11-02T10:04:12.767Z,1.63
2022-11-02T10:06:43.875Z,1.90
2022-11-02T10:09:24.734Z,1.60
2022-11-02T10:12:06.862Z,1.90
2022-11-02T10:14:38.697Z,1.70
2022-11-02T10:17:16.374Z,1.75
2022-11-02T10:19:47.840Z,2.45
2022-11-02T10:22:17.055Z,1.02
2022-11-02T10:24:45.246Z,1.55
2022-11-02T10:27:23.876Z,1.77
2022-11-02T10:30:06.543Z,1.88
2022-11-02T10:32:35.759Z,2.05
2022-11-02T10:38:00.730Z,1.67
2022-11-02T10:40:27.956Z,2.15
2022-11-02T10:43:04.292Z,1.48
2022-11-02T10:45:38.728Z,1.45
2022-11-02T10:48:12.102Z,1.33
2022-11-02T10:50:47.108Z,1.75
2022-11-02T10:53:39.619Z,1.40
2022-11-02T10:56:15.056Z,1.77
2022-11-02T10:58:49.381Z,1.98
2022-11-02T11:01:16.653Z,1.63
2022-11-02T11:03:57.498Z,1.73
2022-11-02T11:06:27.854Z,2.30
2022-11-02T11:08:59.726Z,1.70
2022-11-02T11:11:29.337Z,1.40
2022-11-02T11:16:56.020Z,1.55
2022-11-02T11:19:39.748Z,1.70
2022-11-02T11:22:28.127Z,1.52
2022-11-02T11:25:15.291Z,1.70
2022-11-02T11:27:46.956Z,1.20
2022-11-02T11:30:46.350Z,1.55
2022-11-02T11:33:22.935Z,1.52
2022-11-02T11:35:50.976Z,1.55
2022-11-02T11:38:20.150Z,2.03
2022-11-02T11:40:49.162Z,1.52
2022-11-02T11:43:18.182Z,2.00
2022-11-02T11:45:57.284Z,1.70
2022-11-02T11:48:33.926Z,2.00
2022-11-02T11:51:02.447Z,1.60
2022-11-02T11:53:29.905Z,2.08
2022-11-02T11:55:58.427Z,1.77
2022-11-02T11:58:32.555Z,1.67
2022-11-02T12:01:18.371Z,2.20
2022-11-02T12:06:31.546Z,1.95
2022-11-02T12:09:04.823Z,2.10
2022-11-02T12:11:41.181Z,1.30
2022-11-02T12:14:22.844Z,1.45
2022-11-02T12:17:02.006Z,1.73
2022-11-02T12:19:41.522Z,1.70
2022-11-02T12:22:20.646Z,1.10
2022-11-02T12:24:48.267Z,1.33
2022-11-02T12:27:20.771Z,1.50
2022-11-02T12:30:00.247Z,1.20
2022-11-02T12:32:50.530Z,1.38
2022-11-02T12:35:33.480Z,1.08
2022-11-02T12:38:19.044Z,1.75
2022-11-02T12:40:47.358Z,2.10
2022-11-02T12:43:29.867Z,1.23
2022-11-02T12:46:05.731Z,2.00
2022-11-02T12:48:38.771Z,1.58
2022-11-02T12:51:11.411Z,0.93
2022-11-02T12:53:41.665Z,1.50
2022-11-02T12:56:11.673Z,1.50
2022-11-02T12:58:40.347Z,2.65
2022-11-02T13:01:20.081Z,2.17
2022-11-02T13:03:57.311Z,1.05
2022-11-02T13:06:32.413Z,1.27
2022-11-02T13:09:02.925Z,2.00
2022-11-02T13:11:36.993Z,1.67
2022-11-02T13:14:06.608Z,2.08
2022-11-02T13:16:37.877Z,2.22
2022-11-02T13:19:06.077Z,1.35
2022-11-02T13:21:44.073Z,1.27
2022-11-02T13:24:13.917Z,2.03
2022-11-02T13:26:42.229Z,1.70
2022-11-02T13:29:23.618Z,1.90
2022-11-02T13:31:56.839Z,1.58
2022-11-02T13:34:30.095Z,1.60
2022-11-02T13:36:57.453Z,1.58
2022-11-02T13:39:30.999Z,1.80
2022-11-02T13:42:13.531Z,1.83
2022-11-02T13:44:59.391Z,2.10
2022-11-02T13:47:41.878Z,1.48
2022-11-02T13:50:13.727Z,1.92
2022-11-02T13:52:48.987Z,0.95
2022-11-02T13:55:21.981Z,1.70
2022-11-02T13:57:53.161Z,2.17
2022-11-02T14:00:23.224Z,1.30
2022-11-02T14:02:56.518Z,1.20
2022-11-02T14:05:32.184Z,1.38
2022-11-02T14:08:04.471Z,2.30
2022-11-02T14:10:33.648Z,1.60
2022-11-02T14:13:01.020Z,1.75
2022-11-02T14:15:30.975Z,1.48
2022-11-02T14:18:04.139Z,1.52
2022-11-02T14:20:39.647Z,1.80
2022-11-02T14:23:10.091Z,2.17
2022-11-02T14:25:46.456Z,1.35
2022-11-02T14:28:37.108Z,1.48
2022-11-02T14:31:04.246Z,1.33
2022-11-02T14:33:40.311Z,1.05
2022-11-02T14:36:11.075Z,2.25
2022-11-02T14:38:38.259Z,2.10
2022-11-02T14:41:14.782Z,1.70
2022-11-02T14:43:50.940Z,1.42
2022-11-02T14:46:23.908Z,1.23
2022-11-02T14:48:56.296Z,1.45
2022-11-02T14:51:26.726Z,1.67
2022-11-02T14:53:59.841Z,2.55
2022-11-02T14:56:47.026Z,1.30
2022-11-02T14:59:18.616Z,1.73
2022-11-02T15:02:12.531Z,2.00
2022-11-02T15:04:47.548Z,1.95
2022-11-02T15:07:19.180Z,1.83
2022-11-02T15:09:57.777Z,1.60
2022-11-02T15:12:36.692Z,2.08
2022-11-02T15:15:03.829Z,2.30
2022-11-02T15:17:30.983Z,2.10
2022-11-02T15:19:58.124Z,2.78
2022-11-02T15:22:44.101Z,1.85
2022-11-02T15:25:33.051Z,1.90
2022-11-02T15:28:08.353Z,2.13
2022-11-02T15:33:05.384Z,2.60
2022-11-02T15:35:38.364Z,1.73
2022-11-02T15:38:28.034Z,1.60
2022-11-02T15:41:13.037Z,2.20
2022-11-02T15:43:52.236Z,1.83
2022-11-02T15:46:28.607Z,1.75
2022-11-02T15:49:05.883Z,1.80
2022-11-02T15:51:48.376Z,1.95
2022-11-02T15:54:21.685Z,2.28
2022-11-02T15:57:07.750Z,2.30
2022-11-02T15:59:37.242Z,2.65
2022-11-02T16:02:22.592Z,2.90
2022-11-02T16:04:51.798Z,2.78
2022-11-02T16:07:19.500Z,2.22
2022-11-02T16:09:47.122Z,2.05
2022-11-02T16:12:17.285Z,1.83
2022-11-02T16:14:44.923Z,2.92
2022-11-02T16:17:22.003Z,2.35
2022-11-02T16:19:49.498Z,2.10
2022-11-02T16:22:23.117Z,2.53
2022-11-02T16:24:51.547Z,2.35
2022-11-02T16:27:18.779Z,2.10
2022-11-02T16:29:46.062Z,2.17
2022-11-02T16:32:13.222Z,2.13
2022-11-02T16:34:42.053Z,2.65
2022-11-02T16:37:15.528Z,2.72
2022-11-02T16:39:45.795Z,3.33
2022-11-02T16:42:16.476Z,2.47
2022-11-02T16:47:18.820Z,2.45
2022-11-02T16:50:04.919Z,2.88
2022-11-02T16:52:36.236Z,3.17
2022-11-02T16:55:04.025Z,2.33
2022-11-02T16:57:32.432Z,2.05
2022-11-02T16:59:59.587Z,2.45
2022-11-02T17:02:40.807Z,2.88
2022-11-02T17:05:15.275Z,2.40
2022-11-02T17:07:48.571Z,2.70
2022-11-02T17:10:24.650Z,2.40
2022-11-02T17:12:51.864Z,2.55
2022-11-02T17:15:32.361Z,2.78
2022-11-02T17:18:08.908Z,3.47
2022-11-02T17:20:37.372Z,2.92
2022-11-02T17:23:05.691Z,2.83
2022-11-02T17:25:34.263Z,3.38
2022-11-02T17:28:02.833Z,3.47
2022-11-02T17:30:36.168Z,3.00
2022-11-02T17:33:15.460Z,3.35
2022-11-02T17:35:46.541Z,2.92
2022-11-02T17:38:14.083Z,2.60
2022-11-02T17:40:41.416Z,2.67
2022-11-02T17:43:08.676Z,3.10
2022-11-02T17:45:39.648Z,2.58
2022-11-02T17:48:08.257Z,2.40
2022-11-02T17:50:36.986Z,2.67
2022-11-02T17:53:05.133Z,3.13
2022-11-02T17:55:33.745Z,3.17
2022-11-02T17:58:01.483Z,3.35
2022-11-02T18:00:29.170Z,2.10
2022-11-02T18:02:57.461Z,2.38
2022-11-02T18:05:26.281Z,2.95
2022-11-02T18:07:55.105Z,2.25
2022-11-02T18:10:23.604Z,2.65
2022-11-02T18:12:52.183Z,2.30
2022-11-02T18:15:29.711Z,2.22
2022-11-02T18:17:57.207Z,2.35
2022-11-02T18:20:24.751Z,2.17
2022-11-02T18:22:52.054Z,2.55
2022-11-02T18:27:51.428Z,2.47
2022-11-02T18:30:19.113Z,2.85
2022-11-02T18:32:46.950Z,2.42
2022-11-02T18:35:15.705Z,2.53
2022-11-02T18:37:43.266Z,2.88
2022-11-02T18:40:12.054Z,2.85
2022-11-02T18:42:39.830Z,2.47
2022-11-02T18:45:07.789Z,3.40
2022-11-02T18:47:35.396Z,2.72
2022-11-02T18:50:02.991Z,2.45
2022-11-02T18:52:32.364Z,2.75
2022-11-02T18:55:06.141Z,2.08
2022-11-02T18:57:33.733Z,2.40
2022-11-02T19:00:02.872Z,2.53
2022-11-02T19:02:30.615Z,2.80
2022-11-02T19:04:57.920Z,3.08
2022-11-02T19:07:43.996Z,2.60
2022-11-02T19:10:11.225Z,2.97
2022-11-02T19:12:38.418Z,2.38
2022-11-02T19:15:06.300Z,2.80
2022-11-02T19:17:33.673Z,3.05
2022-11-02T19:20:01.391Z,3.13
2022-11-02T19:22:28.748Z,3.00
2022-11-02T19:24:56.033Z,2.83
2022-11-02T19:27:24.522Z,2.38
2022-11-02T19:29:52.259Z,5.18
2022-11-02T19:32:19.727Z,3.45
2022-11-02T19:34:47.093Z,2.35
2022-11-02T19:37:14.323Z,2.38
2022-11-02T19:39:41.504Z,2.28
2022-11-02T19:42:08.867Z,2.70
2022-11-02T19:44:42.307Z,3.53
2022-11-02T19:47:10.248Z,2.53
2022-11-02T19:49:37.458Z,2.90
2022-11-02T19:52:04.655Z,2.78
2022-11-02T19:54:31.802Z,2.63
2022-11-02T19:56:58.969Z,3.20
2022-11-02T19:59:26.226Z,2.42
2022-11-02T20:01:53.535Z,2.95
2022-11-02T20:04:20.809Z,3.67
2022-11-02T20:06:48.159Z,2.65
2022-11-02T20:09:16.658Z,3.22
2022-11-02T20:11:47.227Z,2.50
2022-11-02T20:14:15.033Z,3.30
2022-11-02T20:16:42.937Z,2.75
2022-11-02T20:19:10.966Z,2.90
2022-11-02T20:21:42.769Z,4.25
2022-11-02T20:24:10.600Z,4.10
2022-11-02T20:26:38.544Z,2.55
2022-11-02T20:29:06.327Z,2.88
2022-11-02T20:31:34.996Z,4.28
2022-11-02T20:34:02.782Z,2.88
2022-11-02T20:36:30.043Z,3.20
2022-11-02T20:38:57.314Z,2.80
2022-11-02T20:41:25.046Z,2.70
2022-11-02T20:43:53.031Z,3.10
2022-11-02T20:46:39.107Z,2.30
2022-11-02T20:49:21.537Z,2.78
2022-11-02T20:51:52.806Z,2.72
2022-11-02T20:54:20.350Z,2.05
2022-11-02T20:56:47.861Z,3.45
2022-11-02T20:59:15.257Z,2.78
2022-11-02T21:01:42.821Z,3.25
2022-11-02T21:04:12.849Z,2.80
2022-11-02T21:09:12.663Z,2.03
2022-11-02T21:11:58.689Z,2.70
2022-11-02T21:14:25.854Z,2.85
2022-11-02T21:16:53.098Z,2.10
2022-11-02T21:19:20.546Z,3.00
2022-11-02T21:21:47.728Z,2.95
2022-11-02T21:24:14.895Z,1.92
2022-11-02T21:26:42.150Z,2.70
2022-11-02T21:29:09.733Z,2.50
2022-11-02T21:31:37.042Z,2.25
2022-11-02T21:34:04.731Z,2.15
2022-11-02T21:36:32.001Z,2.78
2022-11-02T21:38:59.172Z,2.00
2022-11-02T21:41:29.015Z,2.35
2022-11-02T21:43:56.360Z,2.60
2022-11-02T21:46:28.433Z,2.70
2022-11-02T21:48:56.159Z,3.47
2022-11-02T21:51:23.764Z,2.22
2022-11-02T21:53:52.132Z,3.42
2022-11-02T21:56:20.544Z,2.90
2022-11-02T21:58:48.176Z,2.70
2022-11-02T22:01:34.288Z,2.35
2022-11-02T22:04:01.855Z,2.53
2022-11-02T22:06:31.514Z,2.97
2022-11-02T22:08:59.513Z,2.33
2022-11-02T22:11:29.972Z,2.95
2022-11-02T22:13:58.511Z,3.45
2022-11-02T22:16:29.260Z,3.40
2022-11-02T22:18:57.361Z,2.55
2022-11-02T22:21:25.732Z,3.13
2022-11-02T22:23:53.001Z,2.72
2022-11-02T22:26:21.029Z,2.92
2022-11-02T22:28:48.599Z,2.83
2022-11-02T22:31:18.211Z,3.13
2022-11-02T22:33:46.371Z,2.35
2022-11-02T22:36:14.797Z,3.05
2022-11-02T22:38:48.411Z,3.00
2022-11-02T22:41:16.381Z,2.40
2022-11-02T22:43:43.667Z,2.65
2022-11-02T22:46:11.242Z,2.75
2022-11-02T22:48:38.445Z,3.22
2022-11-02T22:51:06.406Z,3.03
2022-11-02T22:53:34.375Z,2.35
2022-11-02T22:56:01.532Z,2.83
2022-11-02T22:58:29.571Z,3.00
2022-11-02T23:00:57.282Z,2.90
2022-11-02T23:03:24.637Z,2.83
2022-11-02T23:05:52.087Z,2.33
2022-11-02T23:08:19.467Z,2.72
2022-11-02T23:11:05.434Z,3.33
2022-11-02T23:13:32.684Z,2.83
2022-11-02T23:16:21.086Z,2.88
2022-11-02T23:19:07.988Z,2.85
2022-11-02T23:21:35.401Z,3.00
2022-11-02T23:24:21.547Z,2.50
2022-11-02T23:26:49.674Z,3.00
2022-11-02T23:29:35.811Z,2.70
2022-11-02T23:32:21.713Z,3.05
2022-11-02T23:35:07.773Z,2.83
2022-11-02T23:37:34.991Z,2.85
2022-11-02T23:40:02.240Z,2.70
2022-11-02T23:42:29.505Z,2.58
2022-11-02T23:44:56.744Z,3.75
2022-11-02T23:47:43.851Z,3.55
2022-11-02T23:50:11.291Z,2.92
2022-11-02T23:52:57.470Z,3.08
2022-11-02T23:55:43.455Z,2.72
2022-11-02T23:58:10.629Z,3.13
